createdAt,value
2023-05-21T00:00:30.742Z,0.50
2023-05-21T00:02:59.426Z,1.30
2023-05-21T00:05:27.041Z,0.43
2023-05-21T00:07:55.149Z,0.60
2023-05-21T00:10:22.687Z,0.60
2023-05-21T00:12:50.031Z,0.70
2023-05-21T00:15:17.296Z,0.60
2023-05-21T00:17:46.209Z,0.40
2023-05-21T00:20:13.753Z,0.88
2023-05-21T00:22:42.609Z,0.40
2023-05-21T00:25:11.433Z,0.50
2023-05-21T00:27:38.827Z,0.93
2023-05-21T00:30:06.936Z,0.80
2023-05-21T00:32:34.473Z,1.02
2023-05-21T00:35:01.824Z,0.93
2023-05-21T00:37:34.366Z,0.73
2023-05-21T00:40:02.816Z,0.68
2023-05-21T00:42:30.858Z,0.45
2023-05-21T00:44:58.439Z,0.65
2023-05-21T00:47:29.789Z,0.73
2023-05-21T00:49:57.202Z,0.55
2023-05-21T00:52:27.045Z,0.70
2023-05-21T00:54:55.293Z,0.60
2023-05-21T00:57:27.415Z,0.70
2023-05-21T00:59:54.964Z,0.80
2023-05-21T01:02:24.456Z,0.80
2023-05-21T01:04:55.431Z,0.85
2023-05-21T01:07:23.495Z,0.98
2023-05-21T01:09:51.291Z,0.73
2023-05-21T01:12:19.766Z,0.85
2023-05-21T01:14:48.188Z,1.00
2023-05-21T01:17:16.116Z,0.80
2023-05-21T01:19:44.900Z,0.70
2023-05-21T01:22:14.358Z,0.77
2023-05-21T01:24:48.414Z,1.00
2023-05-21T01:27:15.906Z,0.80
2023-05-21T01:29:43.527Z,0.80
2023-05-21T01:32:29.705Z,1.08
2023-05-21T01:35:05.466Z,0.70
2023-05-21T01:37:55.412Z,0.90
2023-05-21T01:40:50.758Z,0.95
2023-05-21T01:45:46.618Z,0.70
2023-05-21T01:48:14.982Z,1.20
2023-05-21T01:50:44.369Z,0.95
2023-05-21T01:53:11.911Z,1.15
2023-05-21T01:55:42.117Z,0.80
2023-05-21T01:58:10.203Z,0.80
2023-05-21T02:00:37.618Z,1.05
2023-05-21T02:03:04.940Z,1.10
2023-05-21T02:05:32.312Z,0.98
2023-05-21T02:08:00.230Z,1.02
2023-05-21T02:10:27.648Z,0.90
2023-05-21T02:12:54.997Z,0.80
2023-05-21T02:15:22.590Z,0.75
2023-05-21T02:17:51.514Z,0.60
2023-05-21T02:20:19.273Z,1.00
2023-05-21T02:22:48.325Z,1.45
2023-05-21T02:25:18.573Z,0.80
2023-05-21T02:27:47.126Z,0.82
2023-05-21T02:30:16.356Z,1.17
2023-05-21T02:32:45.020Z,1.00
2023-05-21T02:35:13.422Z,0.70
2023-05-21T02:37:41.390Z,1.17
2023-05-21T02:40:10.194Z,1.48
2023-05-21T02:42:39.977Z,0.80
2023-05-21T02:45:12.761Z,0.77
2023-05-21T02:47:42.470Z,0.80
2023-05-21T02:50:10.252Z,0.90
2023-05-21T02:52:44.852Z,1.02
2023-05-21T02:55:12.122Z,0.93
2023-05-21T02:57:39.536Z,1.02
2023-05-21T03:00:08.508Z,1.23
2023-05-21T03:02:36.490Z,1.02
2023-05-21T03:05:04.088Z,0.90
2023-05-21T03:07:31.786Z,0.82
2023-05-21T03:09:59.467Z,0.88
2023-05-21T03:12:26.805Z,1.15
2023-05-21T03:14:54.142Z,1.83
2023-05-21T03:17:22.387Z,1.13
2023-05-21T03:19:49.644Z,1.15
2023-05-21T03:22:17.399Z,1.30
2023-05-21T03:24:46.447Z,1.73
2023-05-21T03:27:14.175Z,1.35
2023-05-21T03:29:43.340Z,1.30
2023-05-21T03:32:11.221Z,1.55
2023-05-21T03:34:38.617Z,1.35
2023-05-21T03:37:06.013Z,0.90
2023-05-21T03:39:34.530Z,1.73
2023-05-21T03:42:02.123Z,1.50
2023-05-21T03:44:38.284Z,1.67
2023-05-21T03:47:25.901Z,1.52
2023-05-21T03:49:54.335Z,1.85
2023-05-21T03:52:21.662Z,1.63
2023-05-21T03:54:49.019Z,1.85
2023-05-21T03:57:16.463Z,1.85
2023-05-21T03:59:44.317Z,1.48
2023-05-21T04:02:11.670Z,1.30
2023-05-21T04:04:39.166Z,2.25
2023-05-21T04:07:10.458Z,1.58
2023-05-21T04:09:37.786Z,2.10
2023-05-21T04:12:05.445Z,1.58
2023-05-21T04:14:33.409Z,1.42
2023-05-21T04:17:00.805Z,1.80
2023-05-21T04:19:28.251Z,1.73
2023-05-21T04:21:56.272Z,1.20
2023-05-21T04:24:23.900Z,1.98
2023-05-21T04:27:01.661Z,1.52
2023-05-21T04:29:31.694Z,1.40
2023-05-21T04:31:59.189Z,1.70
2023-05-21T04:34:26.593Z,1.67
2023-05-21T04:36:54.245Z,1.85
2023-05-21T04:39:21.741Z,1.25
2023-05-21T04:41:50.886Z,1.27
2023-05-21T04:44:18.509Z,1.40
2023-05-21T04:46:46.969Z,2.03
2023-05-21T04:49:14.458Z,1.70
2023-05-21T04:51:41.840Z,1.67
2023-05-21T04:54:09.134Z,2.35
2023-05-21T04:56:36.511Z,1.30
2023-05-21T04:59:05.603Z,1.55
2023-05-21T05:01:35.549Z,1.63
2023-05-21T05:04:03.191Z,1.63
2023-05-21T05:06:31.285Z,1.83
2023-05-21T05:08:58.864Z,1.92
2023-05-21T05:11:26.839Z,1.90
2023-05-21T05:13:54.498Z,1.70
2023-05-21T05:16:25.863Z,1.90
2023-05-21T05:18:56.392Z,1.50
2023-05-21T05:21:24.246Z,2.00
2023-05-21T05:23:51.795Z,2.47
2023-05-21T05:26:22.840Z,2.53
2023-05-21T05:28:50.124Z,1.88
2023-05-21T05:31:17.651Z,1.98
2023-05-21T05:33:45.340Z,2.33
2023-05-21T05:36:12.973Z,3.30
2023-05-21T05:38:40.369Z,2.47
2023-05-21T05:41:07.712Z,2.30
2023-05-21T05:43:35.103Z,1.85
2023-05-21T05:46:02.590Z,2.28
2023-05-21T05:48:29.923Z,2.08
2023-05-21T05:50:58.691Z,2.63
2023-05-21T05:53:27.170Z,2.45
2023-05-21T05:55:54.665Z,3.05
2023-05-21T05:58:22.022Z,1.63
2023-05-21T06:01:08.064Z,1.60
2023-05-21T06:03:35.573Z,2.10
2023-05-21T06:06:11.794Z,2.50
2023-05-21T06:08:40.705Z,2.35
2023-05-21T06:11:08.103Z,2.25
2023-05-21T06:13:35.717Z,2.33
2023-05-21T06:16:04.415Z,2.35
2023-05-21T06:18:31.702Z,2.13
2023-05-21T06:20:59.006Z,1.63
2023-05-21T06:23:27.573Z,3.92
2023-05-21T06:25:55.280Z,2.92
2023-05-21T06:28:22.812Z,2.03
2023-05-21T06:30:50.937Z,1.60
2023-05-21T06:33:18.506Z,1.45
2023-05-21T06:35:46.560Z,1.92
2023-05-21T06:38:14.884Z,1.33
2023-05-21T06:40:44.745Z,2.70
2023-05-21T06:43:16.210Z,1.92
2023-05-21T06:46:12.865Z,1.83
2023-05-21T06:48:41.162Z,1.70
2023-05-21T06:51:08.483Z,1.20
2023-05-21T06:53:36.220Z,1.83
2023-05-21T06:56:03.870Z,2.50
2023-05-21T06:58:41.011Z,2.22
2023-05-21T07:01:08.420Z,2.00
2023-05-21T07:03:36.911Z,1.67
2023-05-21T07:06:04.364Z,1.38
2023-05-21T07:08:32.378Z,2.78
2023-05-21T07:11:02.954Z,1.38
2023-05-21T07:13:30.868Z,1.70
2023-05-21T07:15:58.267Z,1.63
2023-05-21T07:18:26.746Z,1.98
2023-05-21T07:20:54.032Z,1.55
2023-05-21T07:23:22.090Z,1.58
2023-05-21T07:25:49.385Z,1.27
2023-05-21T07:28:17.199Z,2.25
2023-05-21T07:30:45.251Z,1.48
2023-05-21T07:33:16.522Z,1.27
2023-05-21T07:35:45.212Z,1.27
2023-05-21T07:38:12.577Z,1.45
2023-05-21T07:40:40.209Z,1.27
2023-05-21T07:43:08.073Z,1.45
2023-05-21T07:45:36.992Z,1.25
2023-05-21T07:48:05.839Z,1.10
2023-05-21T07:50:35.310Z,1.65
2023-05-21T07:53:03.197Z,1.70
2023-05-21T07:55:37.579Z,1.08
2023-05-21T07:58:05.964Z,1.20
2023-05-21T08:00:44.690Z,1.00
2023-05-21T08:03:18.822Z,0.98
2023-05-21T08:05:51.162Z,0.93
2023-05-21T08:08:20.295Z,1.73
2023-05-21T08:10:48.330Z,0.80
2023-05-21T08:13:17.329Z,1.33
2023-05-21T08:15:46.314Z,1.17
2023-05-21T08:18:13.732Z,1.00
2023-05-21T08:20:43.600Z,0.88
2023-05-21T08:23:11.822Z,0.98
2023-05-21T08:25:46.129Z,1.08
2023-05-21T08:28:13.568Z,0.80
2023-05-21T08:30:41.492Z,0.82
2023-05-21T08:33:08.770Z,0.80
2023-05-21T08:35:36.341Z,1.55
2023-05-21T08:38:19.870Z,1.10
2023-05-21T08:41:19.419Z,0.80
2023-05-21T08:43:50.245Z,0.93
2023-05-21T08:46:22.297Z,0.80
2023-05-21T08:48:51.691Z,0.77
2023-05-21T08:51:19.096Z,1.05
2023-05-21T08:53:51.161Z,1.85
2023-05-21T08:56:21.287Z,0.88
2023-05-21T08:58:54.399Z,1.00
2023-05-21T09:01:26.625Z,0.75
2023-05-21T09:04:18.992Z,0.63
2023-05-21T09:06:48.782Z,0.60
2023-05-21T09:09:32.623Z,0.70
2023-05-21T09:12:00.055Z,0.55
2023-05-21T09:14:28.552Z,0.52
2023-05-21T09:17:04.242Z,0.80
2023-05-21T09:19:32.507Z,0.70
2023-05-21T09:22:04.604Z,0.60
2023-05-21T09:24:36.040Z,0.70
2023-05-21T09:27:07.875Z,0.70
2023-05-21T09:29:36.281Z,0.60
2023-05-21T09:32:08.036Z,0.40
2023-05-21T09:34:38.088Z,0.60
2023-05-21T09:37:16.411Z,0.50
2023-05-21T09:39:48.410Z,0.80
2023-05-21T09:42:16.343Z,0.70
2023-05-21T09:44:44.331Z,0.77
2023-05-21T09:47:12.216Z,0.50
2023-05-21T09:49:39.599Z,0.77
2023-05-21T09:52:06.980Z,0.57
2023-05-21T09:54:35.091Z,0.50
2023-05-21T09:57:02.973Z,0.60
2023-05-21T09:59:40.123Z,0.88
2023-05-21T10:02:24.204Z,0.70
2023-05-21T10:04:54.426Z,0.50
2023-05-21T10:07:26.464Z,0.57
2023-05-21T10:09:58.274Z,1.00
2023-05-21T10:12:27.432Z,0.70
2023-05-21T10:15:01.347Z,0.40
2023-05-21T10:17:31.206Z,0.55
2023-05-21T10:20:00.277Z,0.60
2023-05-21T10:22:28.285Z,0.60
2023-05-21T10:24:56.888Z,0.52
2023-05-21T10:27:24.465Z,0.60
2023-05-21T10:29:54.442Z,0.50
2023-05-21T10:32:23.062Z,0.50
2023-05-21T10:34:53.030Z,0.60
2023-05-21T10:37:24.793Z,0.60
2023-05-21T10:39:52.291Z,0.60
2023-05-21T10:42:31.473Z,1.10
2023-05-21T10:45:19.832Z,0.68
2023-05-21T10:48:12.507Z,1.10
2023-05-21T10:51:08.373Z,0.77
2023-05-21T10:53:44.577Z,0.80
2023-05-21T10:56:22.389Z,0.70
2023-05-21T10:59:22.433Z,1.58
2023-05-21T11:01:53.596Z,0.77
2023-05-21T11:04:27.112Z,0.68
2023-05-21T11:06:54.863Z,0.50
2023-05-21T11:09:23.165Z,1.15
2023-05-21T11:11:52.390Z,0.60
2023-05-21T11:14:43.165Z,0.60
2023-05-21T11:17:13.920Z,0.85
2023-05-21T11:19:49.065Z,0.80
2023-05-21T11:22:25.548Z,0.75
2023-05-21T11:25:01.155Z,0.90
2023-05-21T11:27:38.777Z,0.80
2023-05-21T11:30:17.361Z,1.48
2023-05-21T11:33:14.046Z,1.05
2023-05-21T11:35:50.281Z,0.65
2023-05-21T11:38:18.609Z,0.80
2023-05-21T11:40:56.503Z,1.00
2023-05-21T11:43:23.853Z,1.08
2023-05-21T11:45:53.191Z,1.00
2023-05-21T11:48:27.231Z,1.17
2023-05-21T11:50:55.783Z,1.00
2023-05-21T11:53:23.057Z,0.70
2023-05-21T11:55:50.811Z,0.77
2023-05-21T11:58:19.799Z,1.00
2023-05-21T12:00:51.501Z,1.00
2023-05-21T12:03:19.938Z,0.80
2023-05-21T12:05:48.933Z,0.70
2023-05-21T12:08:27.222Z,0.90
2023-05-21T12:11:02.004Z,1.00
2023-05-21T12:13:29.518Z,0.70
2023-05-21T12:15:56.869Z,0.80
2023-05-21T12:18:25.307Z,0.70
2023-05-21T12:20:52.715Z,0.70
2023-05-21T12:23:26.130Z,1.17
2023-05-21T12:25:56.440Z,0.90
2023-05-21T12:28:24.962Z,0.70
2023-05-21T12:30:53.672Z,0.80
2023-05-21T12:33:23.134Z,0.88
2023-05-21T12:35:52.717Z,0.73
2023-05-21T12:38:20.285Z,0.80
2023-05-21T12:40:47.628Z,0.85
2023-05-21T12:43:14.939Z,0.85
2023-05-21T12:45:43.677Z,0.80
2023-05-21T12:48:12.206Z,0.63
2023-05-21T12:50:41.029Z,0.73
2023-05-21T12:53:11.396Z,0.88
2023-05-21T12:55:38.941Z,0.80
2023-05-21T12:58:09.088Z,1.08
2023-05-21T13:00:37.400Z,0.90
2023-05-21T13:03:06.718Z,0.85
2023-05-21T13:05:35.225Z,1.00
2023-05-21T13:08:02.652Z,0.70
2023-05-21T13:10:29.933Z,0.90
2023-05-21T13:12:57.262Z,0.80
2023-05-21T13:15:24.694Z,0.90
2023-05-21T13:17:53.684Z,1.30
2023-05-21T13:20:26.426Z,1.23
2023-05-21T13:22:54.162Z,1.17
2023-05-21T13:25:25.171Z,0.82
2023-05-21T13:27:53.765Z,1.40
2023-05-21T13:30:22.015Z,1.52
2023-05-21T13:32:49.734Z,1.35
2023-05-21T13:35:17.803Z,1.20
2023-05-21T13:37:45.496Z,0.80
2023-05-21T13:40:15.699Z,1.00
2023-05-21T13:42:45.422Z,1.15
2023-05-21T13:45:16.083Z,0.90
2023-05-21T13:47:44.775Z,1.27
2023-05-21T13:50:12.537Z,0.73
2023-05-21T13:52:40.165Z,1.25
2023-05-21T13:55:07.985Z,1.10
2023-05-21T13:57:35.369Z,1.30
2023-05-21T14:00:02.891Z,0.90
2023-05-21T14:02:35.180Z,0.90
2023-05-21T14:05:02.583Z,1.10
2023-05-21T14:07:29.992Z,1.10
2023-05-21T14:09:57.497Z,0.90
2023-05-21T14:12:24.790Z,0.88
2023-05-21T14:14:51.998Z,0.80
2023-05-21T14:17:19.468Z,0.70
2023-05-21T14:19:48.152Z,1.05
2023-05-21T14:22:15.507Z,0.95
2023-05-21T14:24:42.788Z,1.63
2023-05-21T14:27:10.204Z,0.88
2023-05-21T14:29:37.509Z,0.80
2023-05-21T14:32:05.105Z,0.75
2023-05-21T14:34:32.359Z,1.00
2023-05-21T14:36:59.655Z,1.15
2023-05-21T14:39:26.863Z,0.85
2023-05-21T14:41:54.338Z,0.80
2023-05-21T14:44:21.675Z,0.90
2023-05-21T14:46:49.214Z,0.80
2023-05-21T14:49:16.462Z,0.82
2023-05-21T14:51:45.027Z,0.98
2023-05-21T14:54:12.288Z,0.88
2023-05-21T14:56:39.678Z,0.90
2023-05-21T14:59:07.032Z,1.17
2023-05-21T15:01:34.450Z,0.98
2023-05-21T15:04:03.626Z,0.80
2023-05-21T15:06:31.013Z,1.00
2023-05-21T15:08:58.261Z,0.90
2023-05-21T15:11:25.709Z,0.70
2023-05-21T15:13:52.930Z,0.90
2023-05-21T15:16:20.298Z,1.10
2023-05-21T15:18:47.726Z,1.00
2023-05-21T15:21:14.986Z,1.25
2023-05-21T15:23:42.274Z,0.90
2023-05-21T15:26:11.705Z,1.10
2023-05-21T15:28:38.978Z,1.00
2023-05-21T15:31:06.460Z,0.80
2023-05-21T15:33:33.787Z,0.90
2023-05-21T15:36:01.143Z,1.10
2023-05-21T15:38:28.506Z,0.90
2023-05-21T15:40:56.054Z,1.08
2023-05-21T15:43:23.349Z,0.98
2023-05-21T15:45:50.679Z,1.10
2023-05-21T15:48:22.598Z,0.85
2023-05-21T15:50:50.160Z,0.90
2023-05-21T15:53:17.609Z,0.90
2023-05-21T15:55:44.938Z,0.80
2023-05-21T15:58:12.349Z,1.00
2023-05-21T16:00:39.603Z,0.63
2023-05-21T16:03:07.120Z,1.00
2023-05-21T16:05:34.698Z,1.27
2023-05-21T16:08:02.111Z,0.73
2023-05-21T16:10:29.519Z,0.80
2023-05-21T16:12:56.837Z,1.13
2023-05-21T16:15:24.135Z,0.80
2023-05-21T16:17:51.419Z,1.20
2023-05-21T16:20:18.913Z,0.70
2023-05-21T16:22:46.690Z,1.45
2023-05-21T16:25:13.983Z,1.00
2023-05-21T16:27:41.231Z,1.38
2023-05-21T16:30:08.967Z,1.13
2023-05-21T16:32:36.350Z,0.88
2023-05-21T16:35:04.030Z,0.80
2023-05-21T16:37:31.356Z,0.90
2023-05-21T16:39:58.612Z,1.00
2023-05-21T16:42:26.116Z,1.00
2023-05-21T16:44:53.484Z,0.93
2023-05-21T16:47:20.935Z,0.80
2023-05-21T16:49:48.254Z,0.90
2023-05-21T16:52:15.558Z,0.80
2023-05-21T16:54:45.738Z,0.70
2023-05-21T16:57:13.127Z,0.73
2023-05-21T16:59:40.479Z,0.75
2023-05-21T17:02:10.850Z,0.90
2023-05-21T17:04:38.129Z,1.05
2023-05-21T17:07:05.665Z,1.05
2023-05-21T17:09:32.973Z,1.10
2023-05-21T17:12:00.298Z,1.00
2023-05-21T17:14:34.534Z,0.93
2023-05-21T17:17:02.818Z,1.60
2023-05-21T17:19:30.395Z,1.00
2023-05-21T17:21:57.886Z,1.30
2023-05-21T17:24:25.391Z,1.05
2023-05-21T17:26:53.922Z,1.10
2023-05-21T17:29:21.283Z,1.10
2023-05-21T17:31:48.741Z,0.90
2023-05-21T17:34:16.863Z,1.10
2023-05-21T17:36:44.331Z,1.50
2023-05-21T17:39:11.621Z,1.08
2023-05-21T17:41:39.366Z,0.90
2023-05-21T17:44:06.695Z,1.40
2023-05-21T17:46:33.998Z,0.88
2023-05-21T17:49:01.363Z,0.90
2023-05-21T17:51:28.718Z,1.13
2023-05-21T17:53:56.514Z,1.10
2023-05-21T17:56:23.749Z,1.20
2023-05-21T17:58:51.473Z,1.25
2023-05-21T18:01:19.892Z,0.90
2023-05-21T18:03:47.507Z,1.00
2023-05-21T18:06:15.491Z,1.10
2023-05-21T18:08:42.809Z,1.20
2023-05-21T18:11:10.215Z,1.30
2023-05-21T18:13:37.730Z,0.90
2023-05-21T18:16:05.646Z,0.90
2023-05-21T18:18:32.968Z,1.10
2023-05-21T18:21:00.481Z,0.80
2023-05-21T18:23:28.831Z,1.00
2023-05-21T18:25:56.501Z,1.05
2023-05-21T18:28:23.769Z,1.10
2023-05-21T18:30:51.358Z,1.33
2023-05-21T18:33:18.584Z,1.45
2023-05-21T18:35:46.020Z,1.00
2023-05-21T18:38:13.690Z,1.20
2023-05-21T18:40:41.051Z,1.27
2023-05-21T18:43:10.916Z,1.10
2023-05-21T18:45:38.200Z,0.93
2023-05-21T18:48:05.976Z,1.00
2023-05-21T18:50:34.562Z,0.82
2023-05-21T18:53:02.597Z,1.30
2023-05-21T18:55:29.835Z,1.10
2023-05-21T18:57:57.496Z,3.72
2023-05-21T19:00:24.855Z,2.55
2023-05-21T19:02:52.162Z,1.35
2023-05-21T19:05:19.801Z,1.10
2023-05-21T19:07:47.523Z,1.08
2023-05-21T19:10:14.870Z,1.00
2023-05-21T19:12:43.651Z,0.80
2023-05-21T19:15:11.730Z,0.82
2023-05-21T19:17:40.056Z,1.15
2023-05-21T19:20:09.207Z,1.48
2023-05-21T19:22:39.664Z,1.00
2023-05-21T19:25:07.389Z,1.08
2023-05-21T19:27:34.703Z,0.90
2023-05-21T19:30:02.036Z,1.00
2023-05-21T19:32:29.740Z,1.23
2023-05-21T19:34:57.568Z,1.00
2023-05-21T19:37:25.007Z,0.90
2023-05-21T19:39:52.301Z,1.20
2023-05-21T19:42:21.605Z,0.88
2023-05-21T19:44:49.212Z,1.20
2023-05-21T19:47:16.661Z,1.27
2023-05-21T19:49:43.886Z,1.17
2023-05-21T19:52:12.237Z,1.23
2023-05-21T19:54:39.675Z,0.88
2023-05-21T19:57:07.091Z,0.80
2023-05-21T19:59:34.717Z,0.90
2023-05-21T20:02:02.175Z,0.70
2023-05-21T20:04:29.540Z,0.90
2023-05-21T20:06:56.846Z,0.80
2023-05-21T20:09:24.218Z,0.80
2023-05-21T20:11:51.850Z,0.80
2023-05-21T20:14:19.296Z,1.10
2023-05-21T20:16:47.352Z,0.80
2023-05-21T20:19:15.384Z,0.70
2023-05-21T20:21:42.922Z,0.70
2023-05-21T20:24:11.470Z,0.90
2023-05-21T20:26:40.054Z,1.05
2023-05-21T20:29:08.195Z,0.82
2023-05-21T20:31:35.904Z,0.88
2023-05-21T20:34:08.959Z,0.80
2023-05-21T20:36:37.129Z,0.95
2023-05-21T20:39:05.121Z,0.60
2023-05-21T20:41:38.868Z,0.77
2023-05-21T20:44:06.758Z,0.70
2023-05-21T20:46:38.405Z,0.65
2023-05-21T20:49:06.274Z,0.70
2023-05-21T20:51:33.874Z,0.70
2023-05-21T20:54:01.419Z,0.70
2023-05-21T20:56:40.945Z,0.80
2023-05-21T20:59:10.932Z,1.00
2023-05-21T21:01:41.172Z,1.10
2023-05-21T21:04:09.111Z,0.80
2023-05-21T21:06:38.576Z,0.98
2023-05-21T21:09:06.200Z,1.05
2023-05-21T21:11:33.593Z,0.80
2023-05-21T21:14:02.622Z,1.08
2023-05-21T21:16:30.118Z,0.80
2023-05-21T21:18:57.653Z,1.08
2023-05-21T21:21:25.164Z,0.85
2023-05-21T21:23:52.384Z,0.95
2023-05-21T21:26:19.760Z,1.10
2023-05-21T21:28:47.081Z,0.88
2023-05-21T21:31:14.445Z,0.77
2023-05-21T21:33:41.752Z,1.27
2023-05-21T21:36:13.319Z,0.68
2023-05-21T21:38:40.660Z,0.80
2023-05-21T21:41:07.910Z,0.70
2023-05-21T21:43:35.171Z,1.10
2023-05-21T21:46:02.532Z,0.63
2023-05-21T21:48:29.870Z,1.40
2023-05-21T21:50:57.540Z,0.80
2023-05-21T21:53:24.786Z,0.80
2023-05-21T21:55:52.139Z,0.90
2023-05-21T21:58:19.366Z,0.80
2023-05-21T22:00:46.733Z,0.95
2023-05-21T22:03:14.838Z,0.93
2023-05-21T22:05:42.711Z,1.02
2023-05-21T22:08:10.573Z,1.15
2023-05-21T22:10:38.556Z,1.92
2023-05-21T22:13:06.075Z,1.10
2023-05-21T22:15:33.480Z,1.10
2023-05-21T22:18:02.457Z,1.05
2023-05-21T22:20:29.884Z,0.70
2023-05-21T22:22:57.909Z,0.80
2023-05-21T22:25:26.073Z,0.70
2023-05-21T22:27:53.391Z,0.60
2023-05-21T22:30:20.830Z,0.70
2023-05-21T22:32:48.471Z,1.08
2023-05-21T22:35:15.946Z,1.15
2023-05-21T22:37:43.233Z,1.23
2023-05-21T22:40:10.879Z,1.42
2023-05-21T22:42:38.817Z,1.00
2023-05-21T22:45:06.899Z,1.30
2023-05-21T22:47:37.232Z,1.30
2023-05-21T22:50:04.756Z,1.13
2023-05-21T22:52:32.510Z,1.38
2023-05-21T22:55:00.733Z,1.00
2023-05-21T22:57:28.163Z,1.00
2023-05-21T22:59:55.553Z,1.45
2023-05-21T23:02:23.232Z,1.10
2023-05-21T23:04:50.665Z,0.80
2023-05-21T23:07:17.956Z,1.50
2023-05-21T23:09:45.243Z,0.98
2023-05-21T23:12:12.639Z,1.30
2023-05-21T23:14:39.992Z,0.98
2023-05-21T23:17:07.643Z,0.98
2023-05-21T23:19:35.091Z,1.05
2023-05-21T23:22:02.589Z,0.98
2023-05-21T23:24:29.897Z,1.20
2023-05-21T23:27:02.115Z,0.88
2023-05-21T23:29:30.461Z,1.10
2023-05-21T23:31:58.312Z,0.82
2023-05-21T23:34:25.949Z,0.90
2023-05-21T23:36:53.276Z,0.95
2023-05-21T23:39:21.205Z,0.90
2023-05-21T23:41:49.261Z,0.80
2023-05-21T23:44:16.857Z,0.90
2023-05-21T23:46:44.225Z,1.15
2023-05-21T23:49:11.814Z,0.77
2023-05-21T23:51:39.749Z,0.70
2023-05-21T23:54:08.251Z,1.00
2023-05-21T23:56:35.834Z,0.80
2023-05-21T23:59:03.203Z,1.63
